Time;durP1;ratioP1;P1;durP2;ratioP2;P2;SDS_P1;SDS_P2;PMS_P1;PMS_P2;Temp;Humidity;BMP_temperature;BMP_pressure;BME280_temperature;BME280_humidity;BME280_pressure;Samples;Min_cycle;Max_cycle;Signal;HPM_P1;HPM_P2
2022/07/04 00:02:03;;;;;;;5.42;3.10;;;;;;;19.31;59.64;100438.01;1734096;82;21915;-80
2022/07/04 00:04:29;;;;;;;4.42;3.12;;;;;;;19.24;59.33;100445.90;1730568;82;21133;-80
2022/07/04 00:06:56;;;;;;;4.47;3.30;;;;;;;19.14;59.59;100435.92;1735393;82;21056;-80
2022/07/04 00:09:23;;;;;;;4.53;3.70;;;;;;;19.10;59.78;100442.61;1718114;82;21032;-80
2022/07/04 00:11:51;;;;;;;5.05;3.10;;;;;;;19.11;59.79;100441.13;1722088;81;20984;-81
2022/07/04 00:14:19;;;;;;;3.50;3.05;;;;;;;19.09;59.62;100439.61;1717334;81;22344;-80
2022/07/04 00:16:45;;;;;;;5.95;3.17;;;;;;;19.05;59.68;100442.33;1732793;82;20973;-79
2022/07/04 00:19:11;;;;;;;4.45;3.30;;;;;;;19.04;59.75;100442.00;1732594;81;21047;-79
2022/07/04 00:21:39;;;;;;;3.58;3.10;;;;;;;19.01;60.12;100428.47;1727556;82;21368;-80
2022/07/04 00:24:06;;;;;;;5.62;3.60;;;;;;;18.98;60.50;100440.01;1729532;82;21473;-80
2022/07/04 00:26:34;;;;;;;4.08;3.33;;;;;;;18.94;60.57;100441.38;1716911;82;21846;-80
2022/07/04 00:29:01;;;;;;;3.75;3.37;;;;;;;18.91;60.34;100440.36;1719216;82;20988;-81
2022/07/04 00:31:27;;;;;;;4.78;3.33;;;;;;;18.88;60.19;100451.75;1719677;82;21059;-81
2022/07/04 00:33:54;;;;;;;4.85;3.40;;;;;;;18.85;60.25;100455.30;1732241;82;20981;-80
2022/07/04 00:36:20;;;;;;;5.65;3.40;;;;;;;18.82;60.44;100446.28;1715458;82;20992;-80
2022/07/04 00:38:47;;;;;;;4.62;3.83;;;;;;;18.79;60.51;100447.44;1726946;82;21891;-80
2022/07/04 00:41:14;;;;;;;4.85;3.42;;;;;;;18.77;60.61;100448.62;1726403;82;21613;-80
2022/07/04 00:43:40;;;;;;;4.83;3.50;;;;;;;18.74;60.65;100444.47;1719485;82;20973;-80
2022/07/04 00:46:07;;;;;;;4.90;3.33;;;;;;;18.73;60.78;100442.80;1731965;82;21009;-80
2022/07/04 00:48:50;;;;;;;5.15;2.98;;;;;;;18.72;60.99;100435.78;1731698;82;21438;-83
2022/07/04 00:51:17;;;;;;;3.65;3.15;;;;;;;18.70;61.14;100435.61;1739981;80;22464;-84
2022/07/04 00:53:44;;;;;;;4.95;3.40;;;;;;;18.68;61.05;100434.44;1732609;82;21019;-81
2022/07/04 00:56:11;;;;;;;4.30;2.98;;;;;;;18.69;60.59;100432.09;1705914;83;21526;-82
2022/07/04 00:58:38;;;;;;;4.42;3.15;;;;;;;18.69;59.90;100437.45;1735964;82;21425;-82
2022/07/04 01:01:06;;;;;;;4.25;3.27;;;;;;;18.68;59.78;100434.44;1728192;82;21459;-82
2022/07/04 01:03:34;;;;;;;8.30;3.22;;;;;;;18.66;59.78;100431.62;1720290;82;22004;-83
2022/07/04 01:06:01;;;;;;;4.30;3.20;;;;;;;18.64;59.77;100430.42;1725116;82;21291;-83
2022/07/04 01:08:31;;;;;;;4.17;3.60;;;;;;;18.64;59.81;100437.12;1723754;82;20995;-82
2022/07/04 01:10:57;;;;;;;4.80;3.12;;;;;;;18.62;59.71;100440.95;1703183;82;20996;-83
2022/07/04 01:13:31;;;;;;;5.85;2.87;;;;;;;18.53;59.90;100445.01;1718673;82;20981;-82
2022/07/04 01:15:58;;;;;;;5.30;3.37;;;;;;;18.44;60.35;100438.52;1722427;82;22674;-82
2022/07/04 01:18:24;;;;;;;4.17;3.40;;;;;;;18.37;60.91;100438.86;1733384;80;21055;-82
2022/07/04 01:20:50;;;;;;;4.90;3.55;;;;;;;18.35;61.36;100439.54;1729026;82;20995;-82
2022/07/04 01:23:17;;;;;;;3.77;3.37;;;;;;;18.29;61.29;100445.88;1742376;82;21431;-82
2022/07/04 01:25:43;;;;;;;7.33;3.40;;;;;;;18.23;61.21;100437.19;1740084;80;22256;-82
2022/07/04 01:28:10;;;;;;;4.53;3.60;;;;;;;18.20;61.26;100434.88;1742031;82;21447;-82
2022/07/04 01:30:37;;;;;;;8.78;3.50;;;;;;;18.17;61.30;100436.55;1744045;80;21439;-82
2022/07/04 01:33:04;;;;;;;4.83;3.65;;;;;;;18.14;61.39;100446.23;1725398;82;21023;-84
2022/07/04 01:35:31;;;;;;;7.62;3.45;;;;;;;18.11;61.64;100447.08;1715482;82;21505;-83
2022/07/04 01:37:57;;;;;;;4.40;3.42;;;;;;;18.07;61.97;100446.59;1724326;82;21020;-83
2022/07/04 01:40:31;;;;;;;;;;;;;;;18.01;62.04;100441.41;1724873;82;21770;-83
2022/07/04 01:42:58;;;;;;;6.03;3.15;;;;;;;17.98;62.05;100449.77;1729867;82;20320;-84
2022/07/04 01:45:25;;;;;;;5.22;3.10;;;;;;;17.94;62.27;100444.91;1717252;82;21003;-84
2022/07/04 01:47:52;;;;;;;7.12;3.30;;;;;;;17.90;62.66;100447.09;1723854;82;21008;-84
2022/07/04 01:50:18;;;;;;;7.20;3.60;;;;;;;17.86;62.78;100447.61;1728032;82;20980;-84
2022/07/04 01:52:45;;;;;;;5.95;3.35;;;;;;;17.82;62.56;100452.94;1734488;82;21792;-84
2022/07/04 01:55:11;;;;;;;3.62;3.10;;;;;;;17.74;62.56;100457.27;1723385;82;21012;-83
2022/07/04 01:57:38;;;;;;;4.40;3.52;;;;;;;17.68;62.75;100462.42;1726621;82;21003;-84
2022/07/04 02:02:53;;;;;;;5.78;3.12;;;;;;;17.66;62.77;100456.39;1735238;82;21012;-83
2022/07/04 02:05:20;;;;;;;4.47;3.50;;;;;;;17.67;62.64;100458.92;1729052;82;21916;-83
2022/07/04 02:07:46;;;;;;;4.62;3.47;;;;;;;17.66;62.62;100469.27;1734008;82;20996;-82
2022/07/04 02:10:13;;;;;;;4.92;3.67;;;;;;;17.62;62.51;100469.25;1719267;82;21031;-82
2022/07/04 02:15:25;;;;;;;5.70;3.42;;;;;;;17.64;62.78;100462.41;1721672;82;21378;-83
2022/07/04 02:17:52;;;;;;;7.35;3.60;;;;;;;17.60;62.84;100463.24;1737649;80;22944;-83
2022/07/04 02:20:18;;;;;;;4.53;2.95;;;;;;;17.57;62.98;100464.92;1732176;81;21391;-82
2022/07/04 02:22:45;;;;;;;5.47;3.52;;;;;;;17.54;62.91;100470.57;1767695;81;21389;-82
2022/07/04 02:25:12;;;;;;;4.28;2.98;;;;;;;17.48;63.19;100475.75;1766580;81;21066;-82
2022/07/04 02:27:39;;;;;;;6.28;3.30;;;;;;;17.45;63.39;100479.56;1746288;81;21328;-83
2022/07/04 02:30:07;;;;;;;6.53;3.50;;;;;;;17.41;63.51;100475.56;1744149;81;21889;-82
2022/07/04 02:32:33;;;;;;;5.20;3.02;;;;;;;17.41;63.60;100475.56;1755153;81;20993;-82
2022/07/04 02:34:59;;;;;;;3.70;2.98;;;;;;;17.40;63.53;100468.55;1750440;81;21028;-82
2022/07/04 02:37:26;;;;;;;4.75;3.17;;;;;;;17.40;63.43;100466.72;1743558;81;21083;-82
2022/07/04 02:39:52;;;;;;;3.30;2.95;;;;;;;17.43;63.38;100466.38;1746484;81;20952;-82
2022/07/04 02:42:20;;;;;;;3.85;3.00;;;;;;;17.45;63.42;100464.88;1755196;81;22012;-82
2022/07/04 02:44:47;;;;;;;6.60;3.20;;;;;;;17.44;63.43;100461.38;1755344;80;20948;-83
2022/07/04 02:47:15;;;;;;;5.20;3.02;;;;;;;17.42;63.51;100461.20;1754069;81;21550;-82
2022/07/04 02:49:41;;;;;;;3.90;3.10;;;;;;;17.41;63.60;100451.03;1755352;81;21463;-82
2022/07/04 02:52:08;;;;;;;4.92;3.20;;;;;;;17.42;63.96;100455.87;1750407;81;21562;-83
2022/07/04 02:54:34;;;;;;;4.12;3.20;;;;;;;17.43;64.10;100454.87;1743698;81;21953;-83
2022/07/04 02:57:01;;;;;;;3.65;2.92;;;;;;;17.43;64.18;100462.88;1742298;81;21447;-83
2022/07/04 02:59:28;;;;;;;3.58;2.90;;;;;;;17.43;64.13;100462.88;1748861;81;20982;-82
2022/07/04 03:01:54;;;;;;;4.70;3.00;;;;;;;17.44;64.30;100461.38;1748506;81;21072;-82
2022/07/04 03:04:20;;;;;;;6.20;3.20;;;;;;;17.44;64.46;100457.87;1762435;81;20996;-81
2022/07/04 03:06:47;;;;;;;5.67;3.62;;;;;;;17.45;64.66;100456.36;1740073;81;22224;-82
2022/07/04 03:09:14;;;;;;;3.40;3.10;;;;;;;17.47;64.76;100456.23;1740806;81;21020;-81
2022/07/04 03:11:41;;;;;;;4.97;3.20;;;;;;;17.49;64.80;100444.88;1744756;81;21004;-81
2022/07/04 03:14:08;;;;;;;6.53;2.92;;;;;;;17.53;64.87;100448.03;1763460;79;21059;-82
2022/07/04 03:16:34;;;;;;;7.35;2.85;;;;;;;17.56;64.84;100444.53;1742875;79;21035;-81
2022/07/04 03:19:00;;;;;;;3.92;2.90;;;;;;;17.61;64.63;100444.05;1766225;79;21800;-81
2022/07/04 03:21:27;;;;;;;5.58;2.90;;;;;;;17.65;64.54;100452.88;1741049;81;20989;-82
2022/07/04 03:23:59;;;;;;;4.37;2.70;;;;;;;17.70;64.54;100446.59;1747730;81;20992;-81
2022/07/04 03:26:31;;;;;;;3.33;2.43;;;;;;;17.75;64.51;100448.75;1741193;81;21096;-83
2022/07/04 03:28:59;;;;;;;3.87;2.83;;;;;;;17.79;64.31;100446.09;1750256;81;20950;-83
2022/07/04 03:31:30;;;;;;;3.98;2.62;;;;;;;17.89;64.27;100448.60;1749468;81;21900;-82
2022/07/04 03:33:56;;;;;;;4.50;2.72;;;;;;;18.01;64.30;100451.27;1765502;81;20985;-83
2022/07/04 03:36:23;;;;;;;4.53;3.00;;;;;;;18.14;64.21;100450.74;1745456;81;21001;-83
2022/07/04 03:38:50;;;;;;;6.85;3.47;;;;;;;18.28;64.25;100457.59;1739486;81;21538;-84
2022/07/04 03:41:16;;;;;;;4.50;3.20;;;;;;;18.40;64.17;100458.06;1746060;81;20954;-84
2022/07/04 03:43:43;;;;;;;6.17;3.30;;;;;;;18.53;63.96;100454.37;1754741;81;21871;-84
2022/07/04 03:46:09;;;;;;;3.55;3.15;;;;;;;18.65;63.82;100452.19;1756326;81;21063;-82
2022/07/04 03:48:36;;;;;;;4.78;3.37;;;;;;;18.76;63.53;100454.48;1753039;81;20973;-82
2022/07/04 03:51:03;;;;;;;9.53;3.35;;;;;;;18.88;63.30;100458.95;1741492;81;21044;-81
2022/07/04 03:53:29;;;;;;;5.75;3.20;;;;;;;19.00;62.99;100462.08;1755221;79;21111;-81
2022/07/04 03:55:56;;;;;;;3.90;3.10;;;;;;;19.10;62.72;100464.86;1736469;81;21832;-81
2022/07/04 03:58:23;;;;;;;6.33;3.05;;;;;;;19.21;62.41;100460.98;1741292;81;21064;-80
2022/07/04 04:00:49;;;;;;;3.50;2.95;;;;;;;19.30;62.12;100455.05;1739582;81;20996;-81
2022/07/04 04:05:44;;;;;;;4.80;2.87;;;;;;;19.51;61.67;100453.11;1719664;82;21431;-79
2022/07/04 04:08:12;;;;;;;3.52;2.47;;;;;;;19.61;61.37;100457.25;1738276;81;20980;-78
2022/07/04 04:10:40;;;;;;;8.13;2.70;;;;;;;19.70;61.12;100452.16;1753421;81;21023;-79
2022/07/04 04:13:07;;;;;;;3.52;2.40;;;;;;;19.81;60.64;100444.71;1742034;81;21060;-79
2022/07/04 04:15:34;;;;;;;18.27;3.33;;;;;;;19.94;59.57;100447.61;1740936;81;21004;-79
2022/07/04 04:18:01;;;;;;;3.12;2.08;;;;;;;20.09;58.83;100441.78;1752706;81;21063;-79
2022/07/04 04:20:27;;;;;;;4.22;1.77;;;;;;;20.23;58.10;100444.98;1754020;81;21773;-79
2022/07/04 04:22:54;;;;;;;2.87;1.70;;;;;;;20.38;56.39;100434.28;1751826;81;20980;-82
2022/07/04 04:25:20;;;;;;;4.55;1.82;;;;;;;20.53;54.62;100433.80;1742732;81;21035;-80
2022/07/04 04:27:47;;;;;;;3.47;1.80;;;;;;;20.69;53.61;100435.47;1748318;81;21017;-77
2022/07/04 04:30:14;;;;;;;3.12;1.82;;;;;;;20.84;53.46;100440.81;1756778;81;21013;-82
2022/07/04 04:32:42;;;;;;;4.85;1.90;;;;;;;20.98;53.16;100442.66;1759354;80;20961;-79
2022/07/04 04:35:09;;;;;;;7.53;1.82;;;;;;;21.12;53.03;100442.30;1751386;81;20953;-79
2022/07/04 04:37:35;;;;;;;5.35;1.72;;;;;;;21.23;52.98;100440.49;1756413;80;20965;-78
2022/07/04 04:40:03;;;;;;;3.12;1.80;;;;;;;21.32;52.68;100435.33;1758919;81;21407;-79
2022/07/04 04:42:29;;;;;;;3.00;1.85;;;;;;;21.41;52.43;100436.87;1755231;81;21023;-76
2022/07/04 04:44:56;;;;;;;4.42;1.80;;;;;;;21.52;52.18;100437.39;1750988;81;22332;-76
2022/07/04 04:47:23;;;;;;;3.77;1.90;;;;;;;21.60;52.07;100438.09;1745303;81;20988;-80
2022/07/04 04:49:49;;;;;;;3.70;1.95;;;;;;;21.70;51.88;100433.75;1746825;81;20957;-83
2022/07/04 04:52:16;;;;;;;2.98;2.00;;;;;;;21.78;51.91;100430.93;1755374;81;21082;-81
2022/07/04 04:54:42;;;;;;;2.92;1.62;;;;;;;21.86;51.03;100429.45;1730673;82;20996;-81
2022/07/04 04:57:09;;;;;;;2.70;1.77;;;;;;;21.94;50.31;100425.28;1761821;81;21928;-87
2022/07/04 04:59:36;;;;;;;2.00;1.72;;;;;;;22.02;49.86;100422.97;1752111;81;21040;-83
2022/07/04 05:02:04;;;;;;;3.20;1.80;;;;;;;22.10;49.92;100424.70;1756968;81;20996;-86
2022/07/04 05:04:30;;;;;;;2.47;1.80;;;;;;;22.19;49.55;100425.70;1742781;80;21091;-78
2022/07/04 05:06:57;;;;;;;2.45;1.85;;;;;;;22.28;49.37;100428.55;1744460;81;20988;-82
2022/07/04 05:09:24;;;;;;;2.55;1.90;;;;;;;22.39;49.47;100426.34;1752274;81;22007;-85
2022/07/04 05:11:51;;;;;;;4.30;1.60;;;;;;;22.49;48.50;100430.89;1753775;81;20972;-79
2022/07/04 05:14:19;;;;;;;4.90;1.60;;;;;;;22.57;48.58;100426.66;1745531;81;20953;-81
2022/07/04 05:16:45;;;;;;;6.45;1.72;;;;;;;22.68;48.16;100423.44;1746400;79;20941;-82
2022/07/04 05:19:12;;;;;;;3.22;1.60;;;;;;;22.75;47.38;100423.45;1749418;81;21544;-82
2022/07/04 05:21:39;;;;;;;2.37;1.65;;;;;;;22.83;47.14;100425.46;1759300;81;22612;-80
2022/07/04 05:24:05;;;;;;;2.52;1.52;;;;;;;22.93;46.66;100431.02;1745682;81;21569;-83
2022/07/04 05:26:32;;;;;;;2.70;1.80;;;;;;;23.00;46.30;100427.84;1746876;81;21013;-79
2022/07/04 05:28:59;;;;;;;6.22;1.60;;;;;;;23.08;45.46;100433.06;1751925;81;21567;-74
2022/07/04 05:31:26;;;;;;;2.60;1.47;;;;;;;23.13;45.42;100430.06;1748526;81;21144;-76
2022/07/04 05:33:54;;;;;;;5.95;1.60;;;;;;;23.21;45.17;100430.41;1750680;81;21829;-78
2022/07/04 05:36:24;;;;;;;4.33;1.40;;;;;;;23.28;44.87;100435.30;1751088;81;21491;-77
2022/07/04 05:38:51;;;;;;;5.30;1.70;;;;;;;23.36;45.47;100435.64;1695905;83;21025;-77
2022/07/04 05:41:17;;;;;;;2.52;1.75;;;;;;;23.42;45.03;100432.94;1663383;84;21064;-74
2022/07/04 05:43:44;;;;;;;2.72;1.98;;;;;;;23.48;45.07;100432.66;1756694;81;21427;-82
2022/07/04 05:46:11;;;;;;;5.58;2.25;;;;;;;23.56;45.85;100430.28;1665149;84;22321;-81
2022/07/04 05:48:37;;;;;;;10.70;2.27;;;;;;;23.65;45.64;100434.48;1672046;84;21069;-83
2022/07/04 05:51:04;;;;;;;3.12;1.80;;;;;;;23.74;45.34;100431.90;1746551;81;21090;-80
2022/07/04 05:53:30;;;;;;;4.58;2.00;;;;;;;23.83;45.61;100430.63;1737433;81;21040;-73
2022/07/04 05:55:57;;;;;;;4.58;1.70;;;;;;;23.89;45.43;100431.16;1703694;83;20958;-73
2022/07/04 05:58:24;;;;;;;3.98;2.10;;;;;;;23.96;45.42;100429.30;1748905;81;21811;-73
2022/07/04 06:00:50;;;;;;;3.02;1.90;;;;;;;24.02;45.50;100429.49;1745241;81;21080;-72
2022/07/04 06:03:17;;;;;;;4.00;2.40;;;;;;;24.06;45.50;100431.59;1691746;83;20955;-72
2022/07/04 06:05:43;;;;;;;4.95;2.25;;;;;;;24.11;45.73;100429.08;1754460;81;20993;-72
2022/07/04 06:08:10;;;;;;;5.50;2.30;;;;;;;24.18;46.06;100431.25;1683838;83;21149;-72
2022/07/04 06:10:36;;;;;;;3.35;2.20;;;;;;;24.27;45.97;100428.65;1717512;83;21943;-72
2022/07/04 06:13:03;;;;;;;3.75;2.22;;;;;;;24.39;45.92;100427.52;1691504;83;20997;-72
2022/07/04 06:15:31;;;;;;;5.53;2.27;;;;;;;24.49;45.76;100425.73;1736116;79;21474;-73
2022/07/04 06:17:58;;;;;;;3.10;2.15;;;;;;;24.58;45.86;100429.03;1676816;83;21732;-74
2022/07/04 06:20:24;;;;;;;6.33;2.50;;;;;;;24.67;45.36;100435.86;1750074;81;21060;-73
2022/07/04 06:22:50;;;;;;;5.30;2.22;;;;;;;24.74;45.15;100435.33;1742135;80;21982;-73
2022/07/04 06:25:18;;;;;;;4.50;2.08;;;;;;;24.81;45.31;100428.04;1727516;81;21404;-73
2022/07/04 06:27:48;;;;;;;4.47;2.22;;;;;;;24.91;45.04;100425.71;1732888;81;21407;-73
2022/07/04 06:30:16;;;;;;;8.33;2.20;;;;;;;25.00;45.41;100419.02;1753889;81;20948;-74
2022/07/04 06:32:49;;;;;;;4.80;2.00;;;;;;;25.13;45.21;100422.20;1738367;81;21066;-74
2022/07/04 06:38:04;;;;;;;5.40;2.25;;;;;;;25.34;45.25;100415.11;1748093;81;21007;-73
2022/07/04 06:40:32;;;;;;;10.25;2.33;;;;;;;25.47;44.68;100416.06;1747768;81;21003;-73
2022/07/04 06:42:58;;;;;;;5.22;2.10;;;;;;;25.54;44.91;100408.22;1726555;81;21399;-73
2022/07/04 06:45:25;;;;;;;3.50;2.40;;;;;;;25.62;44.67;100410.66;1748366;81;21584;-73
2022/07/04 06:47:52;;;;;;;8.03;2.52;;;;;;;25.69;44.98;100419.56;1731186;81;22454;-73
2022/07/04 06:50:18;;;;;;;6.67;2.65;;;;;;;25.75;44.60;100411.63;1747928;81;21408;-73
2022/07/04 06:52:45;;;;;;;5.80;2.50;;;;;;;25.85;44.39;100416.02;1735553;81;21047;-72
2022/07/04 06:55:11;;;;;;;3.05;2.10;;;;;;;25.92;44.29;100413.58;1750654;80;21039;-72
2022/07/04 06:57:38;;;;;;;3.65;2.33;;;;;;;26.01;44.51;100412.77;1748821;81;20953;-75
2022/07/04 07:00:07;;;;;;;4.40;2.58;;;;;;;26.14;44.94;100407.75;1735316;81;21938;-74
2022/07/04 07:02:37;;;;;;;5.45;2.05;;;;;;;26.29;45.07;100405.53;1734367;81;21425;-75
2022/07/04 07:05:05;;;;;;;2.47;2.00;;;;;;;26.41;44.86;100409.70;1740810;81;20980;-75
2022/07/04 07:07:31;;;;;;;4.75;2.20;;;;;;;26.51;44.62;100404.06;1746359;81;21031;-75
2022/07/04 07:09:58;;;;;;;3.67;2.17;;;;;;;26.55;43.78;100399.05;1735611;81;21396;-79
2022/07/04 07:12:25;;;;;;;6.17;2.37;;;;;;;26.62;45.20;100402.48;1735300;81;21814;-83
2022/07/04 07:14:51;;;;;;;4.90;2.15;;;;;;;26.77;44.99;100404.82;1728708;81;21008;-78
2022/07/04 07:17:18;;;;;;;2.70;2.45;;;;;;;26.90;44.13;100403.81;1733009;80;21045;-75
2022/07/04 07:19:44;;;;;;;5.33;2.40;;;;;;;26.96;43.04;100404.27;1725866;83;21012;-79
2022/07/04 07:22:12;;;;;;;5.12;2.55;;;;;;;27.01;43.85;100404.39;1733185;81;21026;-79
2022/07/04 07:24:38;;;;;;;3.87;2.37;;;;;;;27.09;42.69;100415.78;1741840;81;22596;-85
2022/07/04 07:27:06;;;;;;;5.67;2.37;;;;;;;27.14;42.95;100404.27;1749876;81;20972;-78
2022/07/04 07:29:34;;;;;;;4.12;2.25;;;;;;;27.23;42.44;100407.48;1728877;81;20991;-79
2022/07/04 07:32:01;;;;;;;3.80;2.20;;;;;;;27.30;41.85;100409.55;1743138;81;21564;-85
2022/07/04 07:34:27;;;;;;;3.25;2.30;;;;;;;27.30;41.17;100401.42;1726419;81;21378;-79
2022/07/04 07:36:54;;;;;;;5.37;2.30;;;;;;;27.34;41.78;100409.41;1730438;81;21857;-81
2022/07/04 07:39:21;;;;;;;2.72;2.30;;;;;;;27.41;41.73;100410.15;1743570;81;21004;-77
2022/07/04 07:41:47;;;;;;;4.05;2.22;;;;;;;27.48;41.37;100405.42;1746040;81;21003;-78
2022/07/04 07:44:14;;;;;;;3.33;2.15;;;;;;;27.58;40.73;100411.64;1725993;82;21130;-78
2022/07/04 07:46:40;;;;;;;2.58;2.02;;;;;;;27.66;41.04;100411.34;1741650;80;20933;-79
2022/07/04 07:49:06;;;;;;;6.08;2.50;;;;;;;27.73;39.06;100406.64;1738048;81;21913;-78
2022/07/04 07:51:33;;;;;;;4.00;2.05;;;;;;;27.76;39.74;100412.95;1737175;81;21000;-79
2022/07/04 07:54:00;;;;;;;2.45;2.00;;;;;;;27.83;39.34;100411.50;1756215;81;20928;-80
2022/07/04 07:56:26;;;;;;;2.33;2.10;;;;;;;27.90;39.62;100403.55;1746765;81;21455;-84
2022/07/04 07:58:53;;;;;;;4.05;2.20;;;;;;;27.93;39.53;100400.35;1745554;81;21545;-78
2022/07/04 08:01:20;;;;;;;3.85;2.40;;;;;;;27.97;39.68;100402.05;1751951;81;21911;-79
2022/07/04 08:06:33;;;;;;;4.35;2.15;;;;;;;27.97;39.38;100405.30;1733006;81;21000;-81
2022/07/04 08:08:59;;;;;;;4.72;2.10;;;;;;;28.07;38.98;100402.83;1732117;81;21020;-79
2022/07/04 08:11:26;;;;;;;3.08;2.00;;;;;;;28.08;38.48;100409.91;1738468;80;20932;-85
2022/07/04 08:13:52;;;;;;;3.47;2.15;;;;;;;28.09;38.19;100403.44;1737714;80;21939;-80
2022/07/04 08:16:20;;;;;;;3.67;2.20;;;;;;;28.14;38.53;100407.08;1730433;81;20948;-79
2022/07/04 08:18:47;;;;;;;5.72;2.40;;;;;;;28.22;39.11;100403.19;1754038;81;21363;-82
2022/07/04 08:21:13;;;;;;;3.42;2.20;;;;;;;28.30;38.71;100405.58;1748595;80;21576;-77
2022/07/04 08:23:40;;;;;;;4.87;2.10;;;;;;;28.37;39.19;100398.11;1685747;84;21046;-83
2022/07/04 08:26:07;;;;;;;4.10;2.17;;;;;;;28.45;38.81;100401.83;1686591;84;22371;-84
2022/07/04 08:28:35;;;;;;;3.75;2.10;;;;;;;28.53;38.13;100395.73;1687233;84;21556;-85
2022/07/04 08:31:01;;;;;;;4.70;2.12;;;;;;;28.54;37.66;100400.11;1683624;84;21075;-78
2022/07/04 08:33:28;;;;;;;5.12;2.30;;;;;;;28.60;38.19;100399.16;1692641;84;21087;-80
2022/07/04 08:35:54;;;;;;;5.70;2.10;;;;;;;28.71;37.07;100398.30;1689908;84;21105;-77
2022/07/04 08:38:22;;;;;;;5.17;2.10;;;;;;;28.73;37.46;100393.44;1689798;84;22550;-79
2022/07/04 08:40:50;;;;;;;2.40;2.08;;;;;;;28.76;36.54;100401.14;1681214;84;21078;-75
2022/07/04 08:43:17;;;;;;;5.15;2.20;;;;;;;28.79;37.67;100399.29;1699682;82;21031;-76
2022/07/04 08:45:45;;;;;;;2.35;2.05;;;;;;;28.90;37.47;100393.02;1705510;84;21063;-81
2022/07/04 08:48:11;;;;;;;2.35;2.00;;;;;;;29.02;37.03;100392.96;1653445;83;21561;-83
2022/07/04 08:50:40;;;;;;;6.00;2.10;;;;;;;29.08;37.12;100392.00;1697183;84;21894;-77
2022/07/04 08:53:13;;;;;;;5.45;1.80;;;;;;;29.15;36.83;100390.50;1695181;84;21594;-74
2022/07/04 08:58:25;;;;;;;4.87;1.95;;;;;;;29.36;36.21;100385.72;1689708;82;21074;-80
2022/07/04 09:00:54;;;;;;;3.25;1.90;;;;;;;29.46;36.11;100385.08;1695770;82;21051;-80
2022/07/04 09:03:21;;;;;;;2.42;1.90;;;;;;;29.49;36.08;100385.42;1685472;82;21941;-83
2022/07/04 09:05:48;;;;;;;3.72;1.77;;;;;;;29.55;36.27;100385.81;1690552;84;21062;-84
2022/07/04 09:08:15;;;;;;;4.80;1.90;;;;;;;29.57;35.20;100390.47;1695349;83;21066;-79
2022/07/04 09:10:42;;;;;;;3.95;1.90;;;;;;;29.56;34.79;100385.27;1688903;84;21040;-79
2022/07/04 09:13:10;;;;;;;6.03;1.75;;;;;;;29.47;34.58;100384.82;1692896;84;21074;-79
2022/07/04 09:15:37;;;;;;;4.17;1.90;;;;;;;29.45;34.86;100393.77;1685868;84;21910;-81
2022/07/04 09:18:04;;;;;;;6.80;1.90;;;;;;;29.50;34.29;100388.97;1685607;82;21074;-79
2022/07/04 09:20:32;;;;;;;3.22;1.80;;;;;;;29.58;33.96;100388.03;1693267;84;21115;-84
2022/07/04 09:22:59;;;;;;;2.05;1.70;;;;;;;29.69;35.01;100388.20;1679192;83;20956;-78
2022/07/04 09:25:26;;;;;;;2.17;1.65;;;;;;;29.79;33.89;100375.57;1718726;82;21064;-81
2022/07/04 09:27:55;;;;;;;2.35;1.77;;;;;;;29.89;34.19;100377.09;1710423;82;21908;-80
2022/07/04 09:30:25;;;;;;;3.05;1.77;;;;;;;30.07;32.76;100380.12;1705993;82;21018;-80
2022/07/04 09:32:59;;;;;;;2.45;1.65;;;;;;;30.07;32.76;100380.12;1710252;82;21050;-80
2022/07/04 09:35:23;;;;;;;2.10;1.80;;;;;;;30.07;33.02;100376.57;1734432;82;21019;-80
2022/07/04 09:37:57;;;;;;;3.40;1.87;;;;;;;30.17;33.24;100364.45;1735363;81;20964;-80
2022/07/04 09:40:33;;;;;;;;;;;;;;;30.17;33.24;100364.45;1737909;82;21806;-80
2022/07/04 09:43:04;;;;;;;2.83;1.98;;;;;;;30.28;32.81;100364.05;1777832;80;20174;-81
2022/07/04 09:45:30;;;;;;;2.72;1.70;;;;;;;30.28;33.00;100370.86;1777003;80;20955;-81
2022/07/04 09:47:58;;;;;;;3.35;1.90;;;;;;;30.38;33.73;100371.83;1696600;82;20963;-80
2022/07/04 09:50:27;;;;;;;5.17;2.17;;;;;;;30.48;33.12;100367.05;1717215;83;21086;-81
2022/07/04 09:53:01;;;;;;;3.30;2.02;;;;;;;30.56;33.01;100362.52;1717658;82;21821;-81
2022/07/04 09:55:34;;;;;;;7.37;2.50;;;;;;;30.70;32.85;100363.01;1717292;82;21418;-82
2022/07/04 09:58:08;;;;;;;6.45;2.20;;;;;;;30.75;33.84;100365.77;1748937;80;26945;-81
2022/07/04 10:00:40;;;;;;;6.55;2.50;;;;;;;30.89;33.44;100357.50;1747513;82;20991;-81
2022/07/04 10:03:30;;;;;;;4.62;2.17;;;;;;;30.97;33.22;100361.64;1748300;80;21046;-82
2022/07/04 10:06:11;;;;;;;2.58;2.05;;;;;;;31.08;33.02;100358.48;1714362;82;22269;-81
2022/07/04 10:08:39;;;;;;;5.33;2.40;;;;;;;31.17;33.05;100359.13;1714332;83;20959;-81
2022/07/04 10:11:06;;;;;;;3.87;2.30;;;;;;;31.27;33.38;100355.73;1704887;82;20997;-81
2022/07/04 10:13:34;;;;;;;2.80;2.20;;;;;;;31.44;33.57;100348.77;1713730;82;21006;-81
2022/07/04 10:16:01;;;;;;;4.53;2.20;;;;;;;31.67;33.77;100348.96;1707008;82;21067;-81
2022/07/04 10:18:27;;;;;;;3.75;2.15;;;;;;;31.89;32.60;100345.05;1710861;82;22511;-81
2022/07/04 10:20:55;;;;;;;6.28;2.42;;;;;;;32.07;32.31;100347.89;1736719;82;21494;-81
2022/07/04 10:23:23;;;;;;;4.55;2.50;;;;;;;32.13;31.15;100349.55;1684230;85;21049;-81
2022/07/04 10:25:53;;;;;;;4.72;2.65;;;;;;;32.13;31.93;100348.18;1694841;83;21545;-82
2022/07/04 10:28:20;;;;;;;7.80;2.83;;;;;;;32.23;32.30;100339.22;1663563;86;21579;-81
2022/07/04 10:30:53;;;;;;;5.37;2.60;;;;;;;32.33;30.90;100345.30;1663536;85;22315;-81
2022/07/04 10:33:28;;;;;;;;;;;;;;;32.34;31.49;100340.14;1686884;84;20968;-81
2022/07/04 10:36:01;;;;;;;7.28;2.52;;;;;;;32.42;31.34;100340.42;1691447;84;20171;-81
2022/07/04 10:38:31;;;;;;;4.37;2.90;;;;;;;32.48;30.62;100335.81;1691888;84;20979;-81
2022/07/04 10:41:07;;;;;;;8.08;3.47;;;;;;;32.52;30.80;100331.44;1663589;85;21082;-81
2022/07/04 10:43:41;;;;;;;8.28;3.47;;;;;;;32.58;30.17;100335.03;1662092;86;21957;-81
2022/07/04 10:46:30;;;;;;;6.28;3.05;;;;;;;32.58;30.19;100333.12;1676274;84;20887;-82
2022/07/04 10:49:18;;;;;;;8.23;3.87;;;;;;;32.58;30.18;100330.93;1684137;83;21066;-83
2022/07/04 10:51:57;;;;;;;9.20;4.83;;;;;;;32.64;29.89;100327.95;1664243;84;21022;-82
2022/07/04 10:54:32;;;;;;;13.62;4.58;;;;;;;32.69;29.26;100332.60;1646503;84;21030;-82
2022/07/04 10:57:19;;;;;;;11.57;5.70;;;;;;;32.57;28.86;100333.39;1703689;83;22576;-82
2022/07/04 10:59:59;;;;;;;4.62;2.80;;;;;;;32.45;30.15;100329.53;1690190;85;20938;-83
2022/07/04 11:02:30;;;;;;;7.58;3.52;;;;;;;32.49;30.05;100322.97;1703880;84;21377;-82
2022/07/04 11:05:09;;;;;;;9.95;4.00;;;;;;;32.64;29.79;100324.40;1690138;85;20963;-82
2022/07/04 11:07:41;;;;;;;10.10;2.98;;;;;;;32.82;29.46;100316.24;1689969;83;21014;-84
2022/07/04 11:10:21;;;;;;;10.88;3.12;;;;;;;33.02;29.87;100323.15;1689133;83;20968;-83
2022/07/04 11:13:01;;;;;;;8.83;2.90;;;;;;;33.20;28.12;100313.05;1697383;82;21016;-82
2022/07/04 11:15:36;;;;;;;5.95;2.50;;;;;;;33.20;26.92;100314.41;1688955;85;20968;-83
2022/07/04 11:18:09;;;;;;;5.42;2.80;;;;;;;33.17;27.10;100310.83;1700007;82;21004;-83
2022/07/04 11:20:38;;;;;;;7.95;2.70;;;;;;;33.23;27.99;100310.30;1688664;83;20972;-83
2022/07/04 11:23:09;;;;;;;3.10;2.02;;;;;;;33.36;27.82;100307.58;1694066;83;21891;-83
2022/07/04 11:25:36;;;;;;;6.25;2.55;;;;;;;33.52;28.62;100305.12;1710257;82;21498;-82
2022/07/04 11:28:24;;;;;;;4.20;2.35;;;;;;;33.66;28.06;100302.08;1688704;83;21387;-83
2022/07/04 11:30:56;;;;;;;5.65;2.40;;;;;;;33.84;28.29;100302.05;1688517;85;21063;-82
2022/07/04 11:33:26;;;;;;;2.35;2.10;;;;;;;34.01;27.84;100294.36;1689418;83;21188;-82
2022/07/04 11:36:18;;;;;;;4.08;2.80;;;;;;;34.10;26.57;100301.46;1698637;83;22355;-84
2022/07/04 11:38:55;;;;;;;5.03;2.55;;;;;;;34.12;27.12;100297.88;1688899;83;21627;-82
2022/07/04 11:45:05;;;;;;;5.20;2.70;;;;;;;34.06;26.68;100299.81;1688920;83;20992;-82
2022/07/04 11:47:10;;;;;;;6.80;3.40;;;;;;;33.90;27.36;100305.09;1692519;83;21024;-82
2022/07/04 11:49:44;;;;;;;9.50;3.40;;;;;;;34.00;27.92;100297.39;1688985;85;21843;-83
2022/07/04 11:52:10;;;;;;;6.58;3.05;;;;;;;34.15;27.92;100300.05;1688727;83;20976;-82